X  Luk Metar data     EHKD De Kooy Airport
Temperatur
45°F Temperatur
39°F Duggpunkt
81% Fugtighed



Vind
21 MPT
34 KM/T
9 M/S
18 KNOB



270°
V
Nuværende forhold

Delvis skyet Delvis skyet
Tryk 997.97 (hPa) - 29.47 (inHg)
Sigt 6 (mil) - 9.7 (km)
Lufthavn
Lufthavnskode EHKD

Lokation: De Kooy Airport
Afstand: 34 (mi)

Metar:
EHKD 152355Z AUTO 27018KT 240V300 9999 FEW015CB SCT016 BKN020 BKN027 07/04 Q0998 WHT

Tid: 16-04-2024 01:55 CEST